Panama, Oklahoma
Current Conditions -  °F | °C
As of 4:35 PM on Monday 22 Dec 2014 (Local Time) from KRKR Reporting Station
Overcast Overcast  
Wind Chill: 56°   Ceiling: 3600
Heat Index: 56°   Visibility: 10mi
Dew Point: 46°   Wind: 5mph
Humidity: 69%   Direction: 270°W
Pressure: 29.56"   Gusts: NA
Location:  35.17°N, 94.67°W
Report Text: KRKR 222235Z AUTO 27004KT 10SM SCT029 OVC036 14/08 A2956 RMK AO2 T01360080
Loading
Personal Weather Stations






























Interactive Weather Map New forecast layout! Learn more

10-Day Weather Forecast

Advertisements
Track Severe Weather on mobile